sensor_id;sensor_type;location;lat;lon;timestamp;pressure;altitude;pressure_sealevel;temperature;humidity
50011;BME280;35899;50.352;19.390;2023-07-13T00:00:13;97487.55;;;20.84;83.69
50011;BME280;35899;50.352;19.390;2023-07-13T00:03:00;97476.45;;;20.80;84.28
50011;BME280;35899;50.352;19.390;2023-07-13T00:05:27;97458.91;;;20.76;84.55
50011;BME280;35899;50.352;19.390;2023-07-13T00:07:53;97449.35;;;20.70;84.90
50011;BME280;35899;50.352;19.390;2023-07-13T00:10:20;97440.56;;;20.62;85.36
50011;BME280;35899;50.352;19.390;2023-07-13T00:12:47;97445.59;;;20.57;86.12
50011;BME280;35899;50.352;19.390;2023-07-13T00:15:16;97450.96;;;20.50;86.60
50011;BME280;35899;50.352;19.390;2023-07-13T00:17:43;97468.90;;;20.45;87.31
50011;BME280;35899;50.352;19.390;2023-07-13T00:20:10;97486.64;;;20.41;87.80
50011;BME280;35899;50.352;19.390;2023-07-13T00:22:37;97492.32;;;20.38;88.17
50011;BME280;35899;50.352;19.390;2023-07-13T00:25:03;97484.61;;;20.35;88.29
50011;BME280;35899;50.352;19.390;2023-07-13T00:27:31;97476.01;;;20.31;88.54
50011;BME280;35899;50.352;19.390;2023-07-13T00:29:58;97486.72;;;20.31;89.01
50011;BME280;35899;50.352;19.390;2023-07-13T00:32:24;97490.58;;;20.30;89.05
50011;BME280;35899;50.352;19.390;2023-07-13T00:34:52;97491.58;;;20.26;89.18
50011;BME280;35899;50.352;19.390;2023-07-13T00:37:18;97512.62;;;20.20;89.29
50011;BME280;35899;50.352;19.390;2023-07-13T00:39:44;97530.13;;;20.18;89.72
50011;BME280;35899;50.352;19.390;2023-07-13T00:42:11;97535.33;;;20.14;90.19
50011;BME280;35899;50.352;19.390;2023-07-13T00:44:38;97536.15;;;20.11;90.53
50011;BME280;35899;50.352;19.390;2023-07-13T00:47:04;97531.34;;;20.07;90.72
50011;BME280;35899;50.352;19.390;2023-07-13T00:49:31;97526.92;;;20.05;90.95
50011;BME280;35899;50.352;19.390;2023-07-13T00:52:02;97522.71;;;20.05;91.45
50011;BME280;35899;50.352;19.390;2023-07-13T00:54:30;97504.36;;;20.04;91.76
50011;BME280;35899;50.352;19.390;2023-07-13T00:56:59;97492.98;;;20.03;91.65
50011;BME280;35899;50.352;19.390;2023-07-13T00:59:28;97485.83;;;19.98;91.46
50011;BME280;35899;50.352;19.390;2023-07-13T01:01:56;97482.12;;;19.94;91.66
50011;BME280;35899;50.352;19.390;2023-07-13T01:04:24;97473.45;;;19.90;92.03
50011;BME280;35899;50.352;19.390;2023-07-13T01:06:50;97469.83;;;19.88;92.16
50011;BME280;35899;50.352;19.390;2023-07-13T01:09:17;97469.25;;;19.85;92.43
50011;BME280;35899;50.352;19.390;2023-07-13T01:11:43;97467.20;;;19.83;92.78
50011;BME280;35899;50.352;19.390;2023-07-13T01:14:10;97468.02;;;19.81;92.89
50011;BME280;35899;50.352;19.390;2023-07-13T01:16:37;97461.22;;;19.82;93.53
50011;BME280;35899;50.352;19.390;2023-07-13T01:19:07;97457.59;;;19.83;93.40
50011;BME280;35899;50.352;19.390;2023-07-13T01:21:38;97451.76;;;19.80;93.18
50011;BME280;35899;50.352;19.390;2023-07-13T01:24:05;97447.23;;;19.77;93.13
50011;BME280;35899;50.352;19.390;2023-07-13T01:26:31;97440.30;;;19.70;92.84
50011;BME280;35899;50.352;19.390;2023-07-13T01:28:58;97432.59;;;19.67;93.15
50011;BME280;35899;50.352;19.390;2023-07-13T01:31:24;97430.42;;;19.63;93.26
50011;BME280;35899;50.352;19.390;2023-07-13T01:33:51;97437.96;;;19.61;93.67
50011;BME280;35899;50.352;19.390;2023-07-13T01:36:20;97433.41;;;19.63;94.18
50011;BME280;35899;50.352;19.390;2023-07-13T01:38:46;97425.67;;;19.64;94.40
50011;BME280;35899;50.352;19.390;2023-07-13T01:41:13;97426.71;;;19.64;94.47
50011;BME280;35899;50.352;19.390;2023-07-13T01:43:39;97436.16;;;19.63;94.64
50011;BME280;35899;50.352;19.390;2023-07-13T01:46:06;97433.24;;;19.62;94.79
50011;BME280;35899;50.352;19.390;2023-07-13T01:48:48;97431.73;;;19.62;94.74
50011;BME280;35899;50.352;19.390;2023-07-13T01:51:16;97433.59;;;19.61;94.92
50011;BME280;35899;50.352;19.390;2023-07-13T01:53:44;97430.44;;;19.60;94.88
50011;BME280;35899;50.352;19.390;2023-07-13T01:56:10;97422.98;;;19.59;95.09
50011;BME280;35899;50.352;19.390;2023-07-13T01:58:37;97419.95;;;19.59;95.22
50011;BME280;35899;50.352;19.390;2023-07-13T02:01:03;97417.52;;;19.59;95.52
50011;BME280;35899;50.352;19.390;2023-07-13T02:03:30;97414.58;;;19.63;96.03
50011;BME280;35899;50.352;19.390;2023-07-13T02:05:57;97407.36;;;19.66;96.31
50011;BME280;35899;50.352;19.390;2023-07-13T02:08:24;97404.51;;;19.66;95.99
50011;BME280;35899;50.352;19.390;2023-07-13T02:10:50;97404.08;;;19.64;95.78
50011;BME280;35899;50.352;19.390;2023-07-13T02:13:17;97407.26;;;19.66;96.11
50011;BME280;35899;50.352;19.390;2023-07-13T02:15:43;97411.05;;;19.68;96.41
50011;BME280;35899;50.352;19.390;2023-07-13T02:18:10;97422.17;;;19.69;96.53
50011;BME280;35899;50.352;19.390;2023-07-13T02:20:36;97418.64;;;19.69;96.50
50011;BME280;35899;50.352;19.390;2023-07-13T02:23:03;97411.96;;;19.69;96.59
50011;BME280;35899;50.352;19.390;2023-07-13T02:25:29;97418.54;;;19.68;96.43
50011;BME280;35899;50.352;19.390;2023-07-13T02:27:56;97418.75;;;19.68;96.51
50011;BME280;35899;50.352;19.390;2023-07-13T02:30:22;97419.38;;;19.66;96.24
50011;BME280;35899;50.352;19.390;2023-07-13T02:32:48;97423.19;;;19.62;96.01
50011;BME280;35899;50.352;19.390;2023-07-13T02:35:17;97432.49;;;19.61;96.45
50011;BME280;35899;50.352;19.390;2023-07-13T02:37:43;97433.74;;;19.61;96.57
50011;BME280;35899;50.352;19.390;2023-07-13T02:40:10;97438.52;;;19.61;96.66
50011;BME280;35899;50.352;19.390;2023-07-13T02:42:36;97436.32;;;19.52;96.23
50011;BME280;35899;50.352;19.390;2023-07-13T02:45:06;97434.55;;;19.48;96.32
50011;BME280;35899;50.352;19.390;2023-07-13T02:47:33;97435.21;;;19.47;96.73
50011;BME280;35899;50.352;19.390;2023-07-13T02:49:59;97439.14;;;19.47;96.91
50011;BME280;35899;50.352;19.390;2023-07-13T02:52:26;97420.05;;;19.46;96.90
50011;BME280;35899;50.352;19.390;2023-07-13T02:54:52;97403.02;;;19.45;96.90
50011;BME280;35899;50.352;19.390;2023-07-13T02:57:19;97386.21;;;19.40;96.40
50011;BME280;35899;50.352;19.390;2023-07-13T02:59:46;97374.45;;;19.26;95.88
50011;BME280;35899;50.352;19.390;2023-07-13T03:02:12;97383.52;;;19.16;96.10
50011;BME280;35899;50.352;19.390;2023-07-13T03:04:38;97385.11;;;19.12;96.82
50011;BME280;35899;50.352;19.390;2023-07-13T03:07:05;97380.38;;;19.12;97.26
50011;BME280;35899;50.352;19.390;2023-07-13T03:09:34;97371.94;;;19.11;97.37
50011;BME280;35899;50.352;19.390;2023-07-13T03:12:02;97371.11;;;19.10;97.64
50011;BME280;35899;50.352;19.390;2023-07-13T03:14:30;97380.13;;;19.10;97.84
50011;BME280;35899;50.352;19.390;2023-07-13T03:16:57;97388.66;;;19.12;98.19
50011;BME280;35899;50.352;19.390;2023-07-13T03:19:25;97400.32;;;19.18;98.60
50011;BME280;35899;50.352;19.390;2023-07-13T03:21:52;97411.21;;;19.22;98.67
50011;BME280;35899;50.352;19.390;2023-07-13T03:24:18;97422.93;;;19.25;98.57
50011;BME280;35899;50.352;19.390;2023-07-13T03:26:45;97431.46;;;19.27;98.50
50011;BME280;35899;50.352;19.390;2023-07-13T03:29:11;97439.98;;;19.32;98.76
50011;BME280;35899;50.352;19.390;2023-07-13T03:31:39;97444.80;;;19.40;98.87
50011;BME280;35899;50.352;19.390;2023-07-13T03:34:06;97453.09;;;19.39;98.24
50011;BME280;35899;50.352;19.390;2023-07-13T03:36:34;97460.95;;;19.40;98.28
50011;BME280;35899;50.352;19.390;2023-07-13T03:39:04;97465.86;;;19.43;98.44
50011;BME280;35899;50.352;19.390;2023-07-13T03:41:43;97461.23;;;19.48;98.31
50011;BME280;35899;50.352;19.390;2023-07-13T03:44:11;97462.83;;;19.54;98.35
50011;BME280;35899;50.352;19.390;2023-07-13T03:46:38;97455.90;;;19.61;98.13
50011;BME280;35899;50.352;19.390;2023-07-13T03:49:05;97458.15;;;19.69;97.96
50011;BME280;35899;50.352;19.390;2023-07-13T03:51:32;97460.41;;;19.77;97.83
50011;BME280;35899;50.352;19.390;2023-07-13T03:54:00;97467.58;;;19.86;97.75
50011;BME280;35899;50.352;19.390;2023-07-13T03:56:26;97464.89;;;19.99;98.10
50011;BME280;35899;50.352;19.390;2023-07-13T03:58:53;97467.77;;;20.09;97.64
50011;BME280;35899;50.352;19.390;2023-07-13T04:01:21;97467.23;;;20.20;97.45
50011;BME280;35899;50.352;19.390;2023-07-13T04:03:48;97462.27;;;20.29;97.09
50011;BME280;35899;50.352;19.390;2023-07-13T04:06:19;97466.46;;;20.34;96.57
50011;BME280;35899;50.352;19.390;2023-07-13T04:08:46;97466.48;;;20.38;96.12
50011;BME280;35899;50.352;19.390;2023-07-13T04:11:13;97468.35;;;20.39;95.99
50011;BME280;35899;50.352;19.390;2023-07-13T04:13:39;97475.34;;;20.39;95.49
50011;BME280;35899;50.352;19.390;2023-07-13T04:16:06;97482.16;;;20.39;95.16
50011;BME280;35899;50.352;19.390;2023-07-13T04:18:32;97480.32;;;20.41;94.95
50011;BME280;35899;50.352;19.390;2023-07-13T04:20:59;97490.51;;;20.41;94.78
50011;BME280;35899;50.352;19.390;2023-07-13T04:23:25;97500.41;;;20.42;94.81
50011;BME280;35899;50.352;19.390;2023-07-13T04:25:52;97502.32;;;20.39;94.44
50011;BME280;35899;50.352;19.390;2023-07-13T04:28:23;97500.44;;;20.38;94.51
50011;BME280;35899;50.352;19.390;2023-07-13T04:30:50;97499.02;;;20.39;94.72
50011;BME280;35899;50.352;19.390;2023-07-13T04:33:16;97498.54;;;20.42;94.83
50011;BME280;35899;50.352;19.390;2023-07-13T04:35:43;97505.08;;;20.47;95.08
50011;BME280;35899;50.352;19.390;2023-07-13T04:38:10;97501.55;;;20.54;95.08
50011;BME280;35899;50.352;19.390;2023-07-13T04:40:37;97507.52;;;20.61;94.86
50011;BME280;35899;50.352;19.390;2023-07-13T04:43:03;97511.84;;;20.66;94.73
50011;BME280;35899;50.352;19.390;2023-07-13T04:45:29;97513.48;;;20.73;94.97
50011;BME280;35899;50.352;19.390;2023-07-13T04:47:56;97515.14;;;20.79;94.95
50011;BME280;35899;50.352;19.390;2023-07-13T04:50:22;97508.21;;;20.82;94.71
50011;BME280;35899;50.352;19.390;2023-07-13T04:52:49;97497.63;;;20.89;94.84
50011;BME280;35899;50.352;19.390;2023-07-13T04:55:16;97488.70;;;20.95;94.65
50011;BME280;35899;50.352;19.390;2023-07-13T04:57:43;97481.27;;;21.00;94.50
50011;BME280;35899;50.352;19.390;2023-07-13T05:00:09;97468.95;;;21.04;94.60
50011;BME280;35899;50.352;19.390;2023-07-13T05:02:37;97467.52;;;21.07;94.26
50011;BME280;35899;50.352;19.390;2023-07-13T05:05:04;97460.35;;;21.09;94.17
50011;BME280;35899;50.352;19.390;2023-07-13T05:07:30;97458.87;;;21.09;94.01
50011;BME280;35899;50.352;19.390;2023-07-13T05:09:57;97460.05;;;21.10;94.05
50011;BME280;35899;50.352;19.390;2023-07-13T05:12:23;97460.30;;;21.11;94.08
50011;BME280;35899;50.352;19.390;2023-07-13T05:14:49;97461.23;;;21.07;93.86
50011;BME280;35899;50.352;19.390;2023-07-13T05:17:16;97466.91;;;21.07;93.91
50011;BME280;35899;50.352;19.390;2023-07-13T05:19:42;97463.92;;;21.08;93.85
50011;BME280;35899;50.352;19.390;2023-07-13T05:22:09;97460.96;;;21.13;94.08
50011;BME280;35899;50.352;19.390;2023-07-13T05:24:35;97459.56;;;21.22;94.18
50011;BME280;35899;50.352;19.390;2023-07-13T05:27:02;97451.26;;;21.36;94.32
50011;BME280;35899;50.352;19.390;2023-07-13T05:29:28;97455.27;;;21.49;94.30
50011;BME280;35899;50.352;19.390;2023-07-13T05:31:55;97460.90;;;21.63;94.64
50011;BME280;35899;50.352;19.390;2023-07-13T05:34:21;97466.84;;;21.74;94.20
50011;BME280;35899;50.352;19.390;2023-07-13T05:36:48;97471.05;;;21.84;93.80
50011;BME280;35899;50.352;19.390;2023-07-13T05:39:15;97474.10;;;21.97;93.55
50011;BME280;35899;50.352;19.390;2023-07-13T05:41:41;97477.17;;;22.04;92.91
50011;BME280;35899;50.352;19.390;2023-07-13T05:44:08;97473.14;;;22.16;93.18
50011;BME280;35899;50.352;19.390;2023-07-13T05:46:34;97470.81;;;22.28;93.14
50011;BME280;35899;50.352;19.390;2023-07-13T05:49:00;97467.67;;;22.45;92.98
50011;BME280;35899;50.352;19.390;2023-07-13T05:51:27;97461.75;;;22.63;92.26
50011;BME280;35899;50.352;19.390;2023-07-13T05:53:53;97465.05;;;22.77;91.74
50011;BME280;35899;50.352;19.390;2023-07-13T05:56:20;97460.21;;;22.91;91.39
50011;BME280;35899;50.352;19.390;2023-07-13T05:58:47;97459.73;;;23.02;91.00
50011;BME280;35899;50.352;19.390;2023-07-13T06:01:14;97454.83;;;23.17;90.59
50011;BME280;35899;50.352;19.390;2023-07-13T06:03:42;97456.20;;;23.25;89.36
50011;BME280;35899;50.352;19.390;2023-07-13T06:06:09;97457.95;;;23.34;88.51
50011;BME280;35899;50.352;19.390;2023-07-13T06:08:36;97457.86;;;23.45;88.81
50011;BME280;35899;50.352;19.390;2023-07-13T06:11:04;97456.34;;;23.60;88.71
50011;BME280;35899;50.352;19.390;2023-07-13T06:13:31;97453.50;;;23.76;88.48
50011;BME280;35899;50.352;19.390;2023-07-13T06:15:57;97448.92;;;23.87;87.62
50011;BME280;35899;50.352;19.390;2023-07-13T06:18:24;97448.14;;;23.96;86.72
50011;BME280;35899;50.352;19.390;2023-07-13T06:20:50;97439.77;;;24.02;85.65
50011;BME280;35899;50.352;19.390;2023-07-13T06:23:16;97439.65;;;23.99;84.81
50011;BME280;35899;50.352;19.390;2023-07-13T06:25:43;97443.08;;;24.00;84.52
50011;BME280;35899;50.352;19.390;2023-07-13T06:28:09;97438.92;;;23.98;83.75
50011;BME280;35899;50.352;19.390;2023-07-13T06:30:37;97436.88;;;23.99;83.53
50011;BME280;35899;50.352;19.390;2023-07-13T06:33:04;97435.65;;;24.05;83.26
50011;BME280;35899;50.352;19.390;2023-07-13T06:35:30;97435.36;;;24.11;82.92
50011;BME280;35899;50.352;19.390;2023-07-13T06:37:57;97437.50;;;24.23;83.44
50011;BME280;35899;50.352;19.390;2023-07-13T06:40:23;97442.32;;;24.41;83.24
50011;BME280;35899;50.352;19.390;2023-07-13T06:42:50;97443.66;;;24.52;82.23
50011;BME280;35899;50.352;19.390;2023-07-13T06:45:16;97442.41;;;24.60;81.68
50011;BME280;35899;50.352;19.390;2023-07-13T06:47:42;97443.35;;;24.73;80.91
50011;BME280;35899;50.352;19.390;2023-07-13T06:50:09;97441.97;;;24.87;79.96
50011;BME280;35899;50.352;19.390;2023-07-13T06:52:35;97441.92;;;25.02;78.85
50011;BME280;35899;50.352;19.390;2023-07-13T06:55:02;97441.85;;;25.18;78.38
50011;BME280;35899;50.352;19.390;2023-07-13T06:57:29;97443.88;;;25.34;77.88
50011;BME280;35899;50.352;19.390;2023-07-13T06:59:55;97440.70;;;25.51;78.03
50011;BME280;35899;50.352;19.390;2023-07-13T07:02:22;97442.28;;;25.68;77.50
50011;BME280;35899;50.352;19.390;2023-07-13T07:04:48;97445.48;;;25.78;76.25
50011;BME280;35899;50.352;19.390;2023-07-13T07:07:15;97449.23;;;25.90;75.86
50011;BME280;35899;50.352;19.390;2023-07-13T07:09:41;97454.27;;;26.05;75.17
50011;BME280;35899;50.352;19.390;2023-07-13T07:12:08;97460.33;;;26.15;74.21
50011;BME280;35899;50.352;19.390;2023-07-13T07:14:34;97462.59;;;26.18;73.70
50011;BME280;35899;50.352;19.390;2023-07-13T07:17:01;97465.16;;;26.27;73.67
50011;BME280;35899;50.352;19.390;2023-07-13T07:19:29;97464.77;;;26.33;73.52
50011;BME280;35899;50.352;19.390;2023-07-13T07:21:55;97468.46;;;26.32;72.58
50011;BME280;35899;50.352;19.390;2023-07-13T07:24:22;97469.49;;;26.31;72.75
50011;BME280;35899;50.352;19.390;2023-07-13T07:26:48;97471.60;;;26.34;72.85
50011;BME280;35899;50.352;19.390;2023-07-13T07:29:17;97470.14;;;26.33;71.80
50011;BME280;35899;50.352;19.390;2023-07-13T07:31:47;97468.83;;;26.37;72.05
50011;BME280;35899;50.352;19.390;2023-07-13T07:34:29;97474.01;;;26.44;71.65
50011;BME280;35899;50.352;19.390;2023-07-13T07:36:58;97476.05;;;26.53;71.70
50011;BME280;35899;50.352;19.390;2023-07-13T07:39:28;97479.80;;;26.64;71.13
50011;BME280;35899;50.352;19.390;2023-07-13T07:41:55;97480.25;;;26.76;70.15
50011;BME280;35899;50.352;19.390;2023-07-13T07:44:23;97480.42;;;26.84;69.65
50011;BME280;35899;50.352;19.390;2023-07-13T07:46:49;97479.10;;;26.96;69.04
50011;BME280;35899;50.352;19.390;2023-07-13T07:49:16;97478.66;;;27.05;68.34
50011;BME280;35899;50.352;19.390;2023-07-13T07:51:42;97481.45;;;27.19;68.08
50011;BME280;35899;50.352;19.390;2023-07-13T07:54:09;97478.69;;;27.34;67.84
50011;BME280;35899;50.352;19.390;2023-07-13T07:56:40;97477.45;;;27.50;67.06
50011;BME280;35899;50.352;19.390;2023-07-13T07:59:09;97474.66;;;27.60;66.51
50011;BME280;35899;50.352;19.390;2023-07-13T08:01:38;97477.77;;;27.75;66.73
50011;BME280;35899;50.352;19.390;2023-07-13T08:04:08;97473.02;;;27.88;66.49
50011;BME280;35899;50.352;19.390;2023-07-13T08:06:54;97471.79;;;27.96;66.28
50011;BME280;35899;50.352;19.390;2023-07-13T08:09:20;97476.44;;;27.96;65.54
50011;BME280;35899;50.352;19.390;2023-07-13T08:11:47;97476.92;;;27.84;64.24
50011;BME280;35899;50.352;19.390;2023-07-13T08:14:16;97474.10;;;27.65;64.40
50011;BME280;35899;50.352;19.390;2023-07-13T08:16:42;97476.91;;;27.56;64.51
50011;BME280;35899;50.352;19.390;2023-07-13T08:19:09;97473.35;;;27.48;64.28
50011;BME280;35899;50.352;19.390;2023-07-13T08:21:36;97474.56;;;27.36;63.77
50011;BME280;35899;50.352;19.390;2023-07-13T08:24:02;97476.50;;;27.13;63.82
50011;BME280;35899;50.352;19.390;2023-07-13T08:26:29;97482.25;;;26.90;64.11
50011;BME280;35899;50.352;19.390;2023-07-13T08:28:55;97485.30;;;26.74;65.33
50011;BME280;35899;50.352;19.390;2023-07-13T08:31:22;97488.16;;;26.59;66.08
50011;BME280;35899;50.352;19.390;2023-07-13T08:33:48;97483.90;;;26.45;66.41
50011;BME280;35899;50.352;19.390;2023-07-13T08:36:14;97481.48;;;26.36;66.44
50011;BME280;35899;50.352;19.390;2023-07-13T08:38:41;97471.67;;;26.43;66.45
50011;BME280;35899;50.352;19.390;2023-07-13T08:41:21;97463.66;;;26.60;65.89
50011;BME280;35899;50.352;19.390;2023-07-13T08:43:49;97460.70;;;26.76;65.35
50011;BME280;35899;50.352;19.390;2023-07-13T08:46:28;97461.50;;;26.98;65.26
50011;BME280;35899;50.352;19.390;2023-07-13T08:48:59;97463.67;;;27.14;64.17
50011;BME280;35899;50.352;19.390;2023-07-13T08:53:55;97465.69;;;27.23;63.32
50011;BME280;35899;50.352;19.390;2023-07-13T08:56:24;97463.70;;;27.26;62.98
50011;BME280;35899;50.352;19.390;2023-07-13T08:58:53;97462.34;;;27.30;63.05
50011;BME280;35899;50.352;19.390;2023-07-13T09:01:30;97463.12;;;27.30;62.72
50011;BME280;35899;50.352;19.390;2023-07-13T09:06:27;97459.95;;;27.17;63.00
50011;BME280;35899;50.352;19.390;2023-07-13T09:08:59;97462.47;;;27.18;63.51
50011;BME280;35899;50.352;19.390;2023-07-13T09:11:31;97467.02;;;27.21;63.61
50011;BME280;35899;50.352;19.390;2023-07-13T09:14:18;97463.09;;;27.15;62.75
50011;BME280;35899;50.352;19.390;2023-07-13T09:16:46;97465.19;;;27.11;63.13
50011;BME280;35899;50.352;19.390;2023-07-13T09:19:17;97465.35;;;27.05;62.76
50011;BME280;35899;50.352;19.390;2023-07-13T09:21:46;97465.83;;;26.93;62.06
50011;BME280;35899;50.352;19.390;2023-07-13T09:24:57;97470.85;;;26.84;62.09
50011;BME280;35899;50.352;19.390;2023-07-13T09:27:03;97472.14;;;26.82;62.28
50011;BME280;35899;50.352;19.390;2023-07-13T09:29:35;97472.42;;;26.83;62.22
50011;BME280;35899;50.352;19.390;2023-07-13T09:32:04;97468.77;;;26.87;62.19
50011;BME280;35899;50.352;19.390;2023-07-13T09:34:32;97471.30;;;26.90;61.96
50011;BME280;35899;50.352;19.390;2023-07-13T09:36:59;97472.39;;;26.93;61.84
50011;BME280;35899;50.352;19.390;2023-07-13T09:39:27;97466.30;;;26.99;61.58
50011;BME280;35899;50.352;19.390;2023-07-13T09:44:30;97465.30;;;27.18;61.66
50011;BME280;35899;50.352;19.390;2023-07-13T09:46:57;97463.95;;;27.35;61.27
50011;BME280;35899;50.352;19.390;2023-07-13T09:49:28;97466.02;;;27.43;61.22
50011;BME280;35899;50.352;19.390;2023-07-13T09:51:59;97462.73;;;27.41;61.07
50011;BME280;35899;50.352;19.390;2023-07-13T09:54:26;97468.42;;;27.29;60.92
50011;BME280;35899;50.352;19.390;2023-07-13T09:56:56;97464.02;;;27.08;60.84
50011;BME280;35899;50.352;19.390;2023-07-13T09:59:23;97470.94;;;26.76;61.31
50011;BME280;35899;50.352;19.390;2023-07-13T10:01:50;97482.53;;;26.14;61.22
50011;BME280;35899;50.352;19.390;2023-07-13T10:04:19;97491.51;;;25.39;61.93
50011;BME280;35899;50.352;19.390;2023-07-13T10:06:46;97490.83;;;24.75;63.38
50011;BME280;35899;50.352;19.390;2023-07-13T10:09:15;97495.23;;;24.21;64.62
50011;BME280;35899;50.352;19.390;2023-07-13T10:11:41;97489.39;;;23.78;66.04
50011;BME280;35899;50.352;19.390;2023-07-13T10:14:14;97500.61;;;23.44;67.06
50011;BME280;35899;50.352;19.390;2023-07-13T10:16:42;97509.83;;;23.12;67.99
50011;BME280;35899;50.352;19.390;2023-07-13T10:21:46;97518.66;;;22.52;70.36
50011;BME280;35899;50.352;19.390;2023-07-13T10:24:16;97524.90;;;22.23;71.32
50011;BME280;35899;50.352;19.390;2023-07-13T10:26:46;97528.56;;;21.95;72.96
50011;BME280;35899;50.352;19.390;2023-07-13T10:29:14;97536.95;;;21.67;73.94
50011;BME280;35899;50.352;19.390;2023-07-13T10:31:44;97541.67;;;21.39;74.98
50011;BME280;35899;50.352;19.390;2023-07-13T10:34:11;97550.60;;;21.09;75.93
50011;BME280;35899;50.352;19.390;2023-07-13T10:36:40;97551.30;;;20.76;77.34
50011;BME280;35899;50.352;19.390;2023-07-13T10:39:27;97567.23;;;20.45;78.36
50011;BME280;35899;50.352;19.390;2023-07-13T10:41:55;97590.42;;;20.14;78.58
50011;BME280;35899;50.352;19.390;2023-07-13T10:44:26;97602.05;;;19.85;79.17
50011;BME280;35899;50.352;19.390;2023-07-13T10:47:06;97616.23;;;19.52;79.21
50011;BME280;35899;50.352;19.390;2023-07-13T10:49:34;97629.73;;;19.21;79.11
50011;BME280;35899;50.352;19.390;2023-07-13T10:52:02;97634.42;;;18.94;79.55
50011;BME280;35899;50.352;19.390;2023-07-13T10:54:34;97630.65;;;18.63;79.95
50011;BME280;35899;50.352;19.390;2023-07-13T10:57:41;97639.80;;;18.25;81.68
50011;BME280;35899;50.352;19.390;2023-07-13T11:00:17;97651.94;;;17.95;83.03
50011;BME280;35899;50.352;19.390;2023-07-13T11:02:58;97654.98;;;17.70;85.14
50011;BME280;35899;50.352;19.390;2023-07-13T11:05:32;97656.74;;;17.45;86.25
50011;BME280;35899;50.352;19.390;2023-07-13T11:10:55;97656.80;;;17.22;88.41
50011;BME280;35899;50.352;19.390;2023-07-13T11:18:51;97648.73;;;17.07;90.23
50011;BME280;35899;50.352;19.390;2023-07-13T11:21:19;97645.79;;;17.11;90.59
50011;BME280;35899;50.352;19.390;2023-07-13T11:26:43;97644.23;;;17.24;91.23
50011;BME280;35899;50.352;19.390;2023-07-13T11:31:59;97641.22;;;17.44;91.81
50011;BME280;35899;50.352;19.390;2023-07-13T11:34:28;97642.27;;;17.53;91.72
50011;BME280;35899;50.352;19.390;2023-07-13T11:36:57;97633.69;;;17.63;91.57
50011;BME280;35899;50.352;19.390;2023-07-13T11:42:07;97649.38;;;17.70;91.67
50011;BME280;35899;50.352;19.390;2023-07-13T11:44:41;97650.14;;;17.78;91.58
50011;BME280;35899;50.352;19.390;2023-07-13T11:47:20;97644.73;;;17.82;91.54
50011;BME280;35899;50.352;19.390;2023-07-13T11:49:51;97648.02;;;17.92;91.84
50011;BME280;35899;50.352;19.390;2023-07-13T11:52:19;97642.20;;;18.01;91.73
50011;BME280;35899;50.352;19.390;2023-07-13T11:54:51;97645.92;;;18.12;91.92
50011;BME280;35899;50.352;19.390;2023-07-13T11:59:44;97640.65;;;18.35;91.64
50011;BME280;35899;50.352;19.390;2023-07-13T12:02:17;97641.73;;;18.45;91.57
50011;BME280;35899;50.352;19.390;2023-07-13T12:04:45;97647.42;;;18.56;91.37
50011;BME280;35899;50.352;19.390;2023-07-13T12:07:15;97647.40;;;18.67;91.30
50011;BME280;35899;50.352;19.390;2023-07-13T12:09:43;97638.54;;;18.78;90.93
50011;BME280;35899;50.352;19.390;2023-07-13T12:12:13;97634.80;;;18.89;90.66
50011;BME280;35899;50.352;19.390;2023-07-13T12:14:40;97637.66;;;19.03;90.61
50011;BME280;35899;50.352;19.390;2023-07-13T12:17:18;97639.56;;;19.14;90.04
50011;BME280;35899;50.352;19.390;2023-07-13T12:19:46;97640.84;;;19.28;89.91
50011;BME280;35899;50.352;19.390;2023-07-13T12:22:14;97638.91;;;19.45;89.91
50011;BME280;35899;50.352;19.390;2023-07-13T12:24:41;97642.17;;;19.62;89.54
50011;BME280;35899;50.352;19.390;2023-07-13T12:27:20;97641.21;;;19.75;88.83
50011;BME280;35899;50.352;19.390;2023-07-13T12:30:01;97631.27;;;19.90;88.67
50011;BME280;35899;50.352;19.390;2023-07-13T12:32:28;97622.22;;;20.08;88.99
50011;BME280;35899;50.352;19.390;2023-07-13T12:34:55;97621.39;;;20.26;88.71
50011;BME280;35899;50.352;19.390;2023-07-13T12:37:23;97623.16;;;20.40;88.25
50011;BME280;35899;50.352;19.390;2023-07-13T12:39:50;97620.13;;;20.53;87.86
50011;BME280;35899;50.352;19.390;2023-07-13T12:42:22;97617.09;;;20.67;87.66
50011;BME280;35899;50.352;19.390;2023-07-13T12:44:49;97617.90;;;20.82;87.25
50011;BME280;35899;50.352;19.390;2023-07-13T12:47:16;97622.18;;;20.98;86.71
50011;BME280;35899;50.352;19.390;2023-07-13T12:49:47;97631.36;;;21.13;85.72
50011;BME280;35899;50.352;19.390;2023-07-13T12:52:19;97628.23;;;21.35;85.43
50011;BME280;35899;50.352;19.390;2023-07-13T12:55:04;97617.36;;;21.63;84.25
50011;BME280;35899;50.352;19.390;2023-07-13T12:57:38;97624.02;;;21.92;83.24
50011;BME280;35899;50.352;19.390;2023-07-13T13:01:06;97629.88;;;22.32;82.35
50011;BME280;35899;50.352;19.390;2023-07-13T13:03:45;97626.63;;;22.80;81.15
50011;BME280;35899;50.352;19.390;2023-07-13T13:08:39;97622.33;;;23.48;78.74
50011;BME280;35899;50.352;19.390;2023-07-13T13:11:05;97628.38;;;23.53;78.20
50011;BME280;35899;50.352;19.390;2023-07-13T13:13:32;97633.25;;;23.49;77.80
50011;BME280;35899;50.352;19.390;2023-07-13T13:16:09;97639.39;;;23.37;77.70
50011;BME280;35899;50.352;19.390;2023-07-13T13:18:36;97647.92;;;23.27;78.15
50011;BME280;35899;50.352;19.390;2023-07-13T13:21:04;97655.39;;;23.07;77.70
50011;BME280;35899;50.352;19.390;2023-07-13T13:23:31;97658.02;;;22.85;77.93
50011;BME280;35899;50.352;19.390;2023-07-13T13:26:01;97658.51;;;22.74;78.36
50011;BME280;35899;50.352;19.390;2023-07-13T13:28:28;97663.48;;;22.74;78.00